sensor_id;sensor_type;location;lat;lon;timestamp;temperature;humidity
10070;DHT22;5074;53.720;10.014;2022-10-16T00:01:03;13.10;99.90
10070;DHT22;5074;53.720;10.014;2022-10-16T00:03:32;13.10;99.90
10070;DHT22;5074;53.720;10.014;2022-10-16T00:06:01;13.10;99.90
10070;DHT22;5074;53.720;10.014;2022-10-16T00:08:29;13.10;99.90
10070;DHT22;5074;53.720;10.014;2022-10-16T00:10:59;13.10;99.90
10070;DHT22;5074;53.720;10.014;2022-10-16T00:13:28;13.10;99.90
10070;DHT22;5074;53.720;10.014;2022-10-16T00:15:56;13.10;99.90
10070;DHT22;5074;53.720;10.014;2022-10-16T00:18:27;13.10;99.90
10070;DHT22;5074;53.720;10.014;2022-10-16T00:20:55;13.00;99.90
10070;DHT22;5074;53.720;10.014;2022-10-16T00:23:28;13.00;99.90
10070;DHT22;5074;53.720;10.014;2022-10-16T00:25:57;13.00;99.90
10070;DHT22;5074;53.720;10.014;2022-10-16T00:28:26;13.00;99.90
10070;DHT22;5074;53.720;10.014;2022-10-16T00:30:54;13.00;99.90
10070;DHT22;5074;53.720;10.014;2022-10-16T00:33:24;13.00;99.90
10070;DHT22;5074;53.720;10.014;2022-10-16T00:35:52;13.00;99.90
10070;DHT22;5074;53.720;10.014;2022-10-16T00:38:20;13.00;99.90
10070;DHT22;5074;53.720;10.014;2022-10-16T00:40:48;13.00;99.90
10070;DHT22;5074;53.720;10.014;2022-10-16T00:46:01;13.00;99.90
10070;DHT22;5074;53.720;10.014;2022-10-16T00:48:32;13.00;99.90
10070;DHT22;5074;53.720;10.014;2022-10-16T00:51:00;13.00;99.90
10070;DHT22;5074;53.720;10.014;2022-10-16T00:53:29;13.10;99.90
10070;DHT22;5074;53.720;10.014;2022-10-16T00:55:58;13.10;99.90
10070;DHT22;5074;53.720;10.014;2022-10-16T00:58:26;13.10;99.90
10070;DHT22;5074;53.720;10.014;2022-10-16T01:00:54;13.10;99.90
10070;DHT22;5074;53.720;10.014;2022-10-16T01:03:23;13.10;99.90
10070;DHT22;5074;53.720;10.014;2022-10-16T01:05:57;13.10;99.90
10070;DHT22;5074;53.720;10.014;2022-10-16T01:08:39;13.10;99.90
10070;DHT22;5074;53.720;10.014;2022-10-16T01:11:17;13.10;99.90
10070;DHT22;5074;53.720;10.014;2022-10-16T01:13:51;13.10;99.90
10070;DHT22;5074;53.720;10.014;2022-10-16T01:16:24;13.10;99.90
10070;DHT22;5074;53.720;10.014;2022-10-16T01:19:04;13.00;99.90
10070;DHT22;5074;53.720;10.014;2022-10-16T01:21:39;13.00;99.90
10070;DHT22;5074;53.720;10.014;2022-10-16T01:24:12;13.00;99.90
10070;DHT22;5074;53.720;10.014;2022-10-16T01:27:01;13.00;99.90
10070;DHT22;5074;53.720;10.014;2022-10-16T01:29:34;13.10;99.90
10070;DHT22;5074;53.720;10.014;2022-10-16T01:32:09;13.00;99.90
10070;DHT22;5074;53.720;10.014;2022-10-16T01:34:42;13.00;99.90
10070;DHT22;5074;53.720;10.014;2022-10-16T01:37:15;13.00;99.90
10070;DHT22;5074;53.720;10.014;2022-10-16T01:39:50;13.00;99.90
10070;DHT22;5074;53.720;10.014;2022-10-16T01:42:26;12.90;99.90
10070;DHT22;5074;53.720;10.014;2022-10-16T01:44:58;12.90;99.90
10070;DHT22;5074;53.720;10.014;2022-10-16T01:47:27;12.90;99.90
10070;DHT22;5074;53.720;10.014;2022-10-16T01:49:58;12.90;99.90
10070;DHT22;5074;53.720;10.014;2022-10-16T01:52:27;12.80;99.90
10070;DHT22;5074;53.720;10.014;2022-10-16T01:54:57;12.80;99.90
10070;DHT22;5074;53.720;10.014;2022-10-16T01:57:28;12.80;99.90
10070;DHT22;5074;53.720;10.014;2022-10-16T01:59:58;12.80;99.90
10070;DHT22;5074;53.720;10.014;2022-10-16T02:02:34;12.80;99.90
10070;DHT22;5074;53.720;10.014;2022-10-16T02:05:04;12.70;99.90
10070;DHT22;5074;53.720;10.014;2022-10-16T02:07:37;12.70;99.90
10070;DHT22;5074;53.720;10.014;2022-10-16T02:10:05;12.60;99.90
10070;DHT22;5074;53.720;10.014;2022-10-16T02:12:35;12.70;99.90
10070;DHT22;5074;53.720;10.014;2022-10-16T02:15:06;12.70;99.90
10070;DHT22;5074;53.720;10.014;2022-10-16T02:17:35;12.60;99.90
10070;DHT22;5074;53.720;10.014;2022-10-16T02:20:03;12.60;99.90
10070;DHT22;5074;53.720;10.014;2022-10-16T02:22:32;12.60;99.90
10070;DHT22;5074;53.720;10.014;2022-10-16T02:25:05;12.60;99.90
10070;DHT22;5074;53.720;10.014;2022-10-16T02:27:38;12.50;99.90
10070;DHT22;5074;53.720;10.014;2022-10-16T02:30:11;12.50;99.90
10070;DHT22;5074;53.720;10.014;2022-10-16T02:32:47;12.50;99.90
10070;DHT22;5074;53.720;10.014;2022-10-16T02:35:17;12.50;99.90
10070;DHT22;5074;53.720;10.014;2022-10-16T02:37:47;12.50;99.90
10070;DHT22;5074;53.720;10.014;2022-10-16T02:40:17;12.40;99.90
10070;DHT22;5074;53.720;10.014;2022-10-16T02:42:52;12.40;99.90
10070;DHT22;5074;53.720;10.014;2022-10-16T02:45:22;12.40;99.90
10070;DHT22;5074;53.720;10.014;2022-10-16T02:47:51;12.40;99.90
10070;DHT22;5074;53.720;10.014;2022-10-16T02:50:19;12.40;99.90
10070;DHT22;5074;53.720;10.014;2022-10-16T02:52:47;12.40;99.90
10070;DHT22;5074;53.720;10.014;2022-10-16T02:55:15;12.40;99.90
10070;DHT22;5074;53.720;10.014;2022-10-16T02:57:43;12.40;99.90
10070;DHT22;5074;53.720;10.014;2022-10-16T03:00:14;12.30;99.90
10070;DHT22;5074;53.720;10.014;2022-10-16T03:02:44;12.30;99.90
10070;DHT22;5074;53.720;10.014;2022-10-16T03:05:13;12.30;99.90
10070;DHT22;5074;53.720;10.014;2022-10-16T03:07:41;12.30;99.90
10070;DHT22;5074;53.720;10.014;2022-10-16T03:10:09;12.20;99.90
10070;DHT22;5074;53.720;10.014;2022-10-16T03:12:37;12.20;99.90
10070;DHT22;5074;53.720;10.014;2022-10-16T03:15:06;12.20;99.90
10070;DHT22;5074;53.720;10.014;2022-10-16T03:17:36;12.20;99.90
10070;DHT22;5074;53.720;10.014;2022-10-16T03:20:04;12.10;99.90
10070;DHT22;5074;53.720;10.014;2022-10-16T03:22:33;12.10;99.90
10070;DHT22;5074;53.720;10.014;2022-10-16T03:25:01;12.10;99.90
10070;DHT22;5074;53.720;10.014;2022-10-16T03:27:29;12.00;99.90
10070;DHT22;5074;53.720;10.014;2022-10-16T03:29:57;12.00;99.90
10070;DHT22;5074;53.720;10.014;2022-10-16T03:32:25;12.00;99.90
10070;DHT22;5074;53.720;10.014;2022-10-16T03:34:56;12.00;99.90
10070;DHT22;5074;53.720;10.014;2022-10-16T03:37:24;12.00;99.90
10070;DHT22;5074;53.720;10.014;2022-10-16T03:39:53;12.00;99.90
10070;DHT22;5074;53.720;10.014;2022-10-16T03:42:21;12.00;99.90
10070;DHT22;5074;53.720;10.014;2022-10-16T03:44:49;12.00;99.90
10070;DHT22;5074;53.720;10.014;2022-10-16T03:47:17;12.00;99.90
10070;DHT22;5074;53.720;10.014;2022-10-16T03:49:48;12.00;99.90
10070;DHT22;5074;53.720;10.014;2022-10-16T03:52:17;12.00;99.90
10070;DHT22;5074;53.720;10.014;2022-10-16T03:54:45;11.90;99.90
10070;DHT22;5074;53.720;10.014;2022-10-16T03:57:13;11.90;99.90
10070;DHT22;5074;53.720;10.014;2022-10-16T03:59:41;11.90;99.90
10070;DHT22;5074;53.720;10.014;2022-10-16T04:02:09;11.90;99.90
10070;DHT22;5074;53.720;10.014;2022-10-16T04:04:38;11.90;99.90
10070;DHT22;5074;53.720;10.014;2022-10-16T04:07:06;11.90;99.90
10070;DHT22;5074;53.720;10.014;2022-10-16T04:09:35;12.00;99.90
10070;DHT22;5074;53.720;10.014;2022-10-16T04:12:03;12.00;99.90
10070;DHT22;5074;53.720;10.014;2022-10-16T04:14:31;12.00;99.90
10070;DHT22;5074;53.720;10.014;2022-10-16T04:16:59;12.00;99.90
10070;DHT22;5074;53.720;10.014;2022-10-16T04:19:27;12.00;99.90
10070;DHT22;5074;53.720;10.014;2022-10-16T04:21:55;12.00;99.90
10070;DHT22;5074;53.720;10.014;2022-10-16T04:24:23;12.00;99.90
10070;DHT22;5074;53.720;10.014;2022-10-16T04:26:52;12.00;99.90
10070;DHT22;5074;53.720;10.014;2022-10-16T04:29:21;12.00;99.90
10070;DHT22;5074;53.720;10.014;2022-10-16T04:31:49;12.00;99.90
10070;DHT22;5074;53.720;10.014;2022-10-16T04:34:17;12.00;99.90
10070;DHT22;5074;53.720;10.014;2022-10-16T04:36:46;12.00;99.90
10070;DHT22;5074;53.720;10.014;2022-10-16T04:39:15;12.00;99.90
10070;DHT22;5074;53.720;10.014;2022-10-16T04:41:43;12.00;99.90
10070;DHT22;5074;53.720;10.014;2022-10-16T04:44:13;11.90;99.90
10070;DHT22;5074;53.720;10.014;2022-10-16T04:46:41;11.90;99.90
10070;DHT22;5074;53.720;10.014;2022-10-16T04:49:09;11.90;99.90
10070;DHT22;5074;53.720;10.014;2022-10-16T04:51:37;11.90;99.90
10070;DHT22;5074;53.720;10.014;2022-10-16T04:54:05;11.90;99.90
10070;DHT22;5074;53.720;10.014;2022-10-16T04:56:33;11.90;99.90
10070;DHT22;5074;53.720;10.014;2022-10-16T04:59:06;11.90;99.90
10070;DHT22;5074;53.720;10.014;2022-10-16T05:01:35;11.80;99.90
10070;DHT22;5074;53.720;10.014;2022-10-16T05:04:03;11.80;99.90
10070;DHT22;5074;53.720;10.014;2022-10-16T05:06:31;11.80;99.90
10070;DHT22;5074;53.720;10.014;2022-10-16T05:09:00;11.80;99.90
10070;DHT22;5074;53.720;10.014;2022-10-16T05:11:28;11.90;99.90
10070;DHT22;5074;53.720;10.014;2022-10-16T05:13:57;11.90;99.90
10070;DHT22;5074;53.720;10.014;2022-10-16T05:16:25;11.80;99.90
10070;DHT22;5074;53.720;10.014;2022-10-16T05:18:55;11.80;99.90
10070;DHT22;5074;53.720;10.014;2022-10-16T05:21:43;11.90;99.90
10070;DHT22;5074;53.720;10.014;2022-10-16T05:24:11;11.90;99.90
10070;DHT22;5074;53.720;10.014;2022-10-16T05:26:39;11.90;99.90
10070;DHT22;5074;53.720;10.014;2022-10-16T05:29:07;12.00;99.90
10070;DHT22;5074;53.720;10.014;2022-10-16T05:31:36;12.00;99.90
10070;DHT22;5074;53.720;10.014;2022-10-16T05:34:05;12.10;99.90
10070;DHT22;5074;53.720;10.014;2022-10-16T05:36:33;12.10;99.90
10070;DHT22;5074;53.720;10.014;2022-10-16T05:39:01;12.10;99.90
10070;DHT22;5074;53.720;10.014;2022-10-16T05:41:29;12.10;99.90
10070;DHT22;5074;53.720;10.014;2022-10-16T05:43:58;12.10;99.90
10070;DHT22;5074;53.720;10.014;2022-10-16T05:46:26;12.10;99.90
10070;DHT22;5074;53.720;10.014;2022-10-16T05:48:54;12.20;99.90
10070;DHT22;5074;53.720;10.014;2022-10-16T05:51:23;12.20;99.90
10070;DHT22;5074;53.720;10.014;2022-10-16T05:53:51;12.20;99.90
10070;DHT22;5074;53.720;10.014;2022-10-16T05:56:20;12.20;99.90
10070;DHT22;5074;53.720;10.014;2022-10-16T05:58:48;12.20;99.90
10070;DHT22;5074;53.720;10.014;2022-10-16T06:01:17;12.20;99.90
10070;DHT22;5074;53.720;10.014;2022-10-16T06:03:47;12.20;99.90
10070;DHT22;5074;53.720;10.014;2022-10-16T06:06:15;12.20;99.90
10070;DHT22;5074;53.720;10.014;2022-10-16T06:08:46;12.20;99.90
10070;DHT22;5074;53.720;10.014;2022-10-16T06:11:16;12.20;99.90
10070;DHT22;5074;53.720;10.014;2022-10-16T06:13:48;12.10;99.90
10070;DHT22;5074;53.720;10.014;2022-10-16T06:16:17;12.20;99.90
10070;DHT22;5074;53.720;10.014;2022-10-16T06:18:45;12.20;99.90
10070;DHT22;5074;53.720;10.014;2022-10-16T06:21:14;12.20;99.90
10070;DHT22;5074;53.720;10.014;2022-10-16T06:23:46;12.20;99.90
10070;DHT22;5074;53.720;10.014;2022-10-16T06:26:15;12.20;99.90
10070;DHT22;5074;53.720;10.014;2022-10-16T06:28:44;12.20;99.90
10070;DHT22;5074;53.720;10.014;2022-10-16T06:31:12;12.20;99.90
10070;DHT22;5074;53.720;10.014;2022-10-16T06:33:41;12.10;99.90
10070;DHT22;5074;53.720;10.014;2022-10-16T06:36:09;12.20;99.90
10070;DHT22;5074;53.720;10.014;2022-10-16T06:38:39;12.10;99.90
10070;DHT22;5074;53.720;10.014;2022-10-16T06:41:09;12.20;99.90
10070;DHT22;5074;53.720;10.014;2022-10-16T06:43:39;12.20;99.90
10070;DHT22;5074;53.720;10.014;2022-10-16T06:46:09;12.30;99.90
10070;DHT22;5074;53.720;10.014;2022-10-16T06:48:38;12.30;99.90
10070;DHT22;5074;53.720;10.014;2022-10-16T06:51:08;12.30;99.90
10070;DHT22;5074;53.720;10.014;2022-10-16T06:53:38;12.30;99.90
10070;DHT22;5074;53.720;10.014;2022-10-16T06:56:29;12.40;99.90
10070;DHT22;5074;53.720;10.014;2022-10-16T06:58:58;12.50;99.90
10070;DHT22;5074;53.720;10.014;2022-10-16T07:01:27;12.60;99.90
10070;DHT22;5074;53.720;10.014;2022-10-16T07:03:55;12.60;99.90
10070;DHT22;5074;53.720;10.014;2022-10-16T07:06:24;12.70;99.90
10070;DHT22;5074;53.720;10.014;2022-10-16T07:08:53;12.80;99.90
10070;DHT22;5074;53.720;10.014;2022-10-16T07:11:22;12.90;99.90
10070;DHT22;5074;53.720;10.014;2022-10-16T07:13:52;13.00;99.90
10070;DHT22;5074;53.720;10.014;2022-10-16T07:16:22;13.10;99.90
10070;DHT22;5074;53.720;10.014;2022-10-16T07:18:53;13.20;99.90
10070;DHT22;5074;53.720;10.014;2022-10-16T07:21:25;13.20;99.90
10070;DHT22;5074;53.720;10.014;2022-10-16T07:23:56;13.30;99.90
10070;DHT22;5074;53.720;10.014;2022-10-16T07:26:26;13.40;99.90
10070;DHT22;5074;53.720;10.014;2022-10-16T07:28:57;13.50;99.90
10070;DHT22;5074;53.720;10.014;2022-10-16T07:31:26;13.50;99.90
10070;DHT22;5074;53.720;10.014;2022-10-16T07:33:54;13.60;99.90
10070;DHT22;5074;53.720;10.014;2022-10-16T07:36:22;13.60;99.90
10070;DHT22;5074;53.720;10.014;2022-10-16T07:38:50;13.60;99.90
10070;DHT22;5074;53.720;10.014;2022-10-16T07:41:24;13.70;99.90
10070;DHT22;5074;53.720;10.014;2022-10-16T07:43:52;13.70;99.90
10070;DHT22;5074;53.720;10.014;2022-10-16T07:46:24;13.70;99.90
10070;DHT22;5074;53.720;10.014;2022-10-16T07:48:52;13.70;99.90
10070;DHT22;5074;53.720;10.014;2022-10-16T07:51:21;13.70;99.90
10070;DHT22;5074;53.720;10.014;2022-10-16T07:53:49;13.70;99.90
10070;DHT22;5074;53.720;10.014;2022-10-16T07:56:18;13.70;99.90
10070;DHT22;5074;53.720;10.014;2022-10-16T07:58:47;13.70;99.90
10070;DHT22;5074;53.720;10.014;2022-10-16T08:01:16;13.70;99.90
10070;DHT22;5074;53.720;10.014;2022-10-16T08:03:47;13.70;99.90
10070;DHT22;5074;53.720;10.014;2022-10-16T08:06:17;13.70;99.90
10070;DHT22;5074;53.720;10.014;2022-10-16T08:08:52;13.70;99.90
10070;DHT22;5074;53.720;10.014;2022-10-16T08:11:20;13.60;99.90
10070;DHT22;5074;53.720;10.014;2022-10-16T08:13:48;13.60;99.90
10070;DHT22;5074;53.720;10.014;2022-10-16T08:16:16;13.60;99.90
10070;DHT22;5074;53.720;10.014;2022-10-16T08:18:44;13.60;99.90
10070;DHT22;5074;53.720;10.014;2022-10-16T08:21:14;13.60;99.90
10070;DHT22;5074;53.720;10.014;2022-10-16T08:23:47;13.60;99.90
10070;DHT22;5074;53.720;10.014;2022-10-16T08:26:22;13.50;99.90
10070;DHT22;5074;53.720;10.014;2022-10-16T08:28:50;13.60;99.90
10070;DHT22;5074;53.720;10.014;2022-10-16T08:31:19;13.60;99.90
10070;DHT22;5074;53.720;10.014;2022-10-16T08:33:47;13.60;99.90
10070;DHT22;5074;53.720;10.014;2022-10-16T08:36:17;13.70;99.90
10070;DHT22;5074;53.720;10.014;2022-10-16T08:38:47;13.70;99.90
10070;DHT22;5074;53.720;10.014;2022-10-16T08:41:25;13.80;99.90
10070;DHT22;5074;53.720;10.014;2022-10-16T08:44:09;13.80;99.90
10070;DHT22;5074;53.720;10.014;2022-10-16T08:46:54;13.90;99.90
10070;DHT22;5074;53.720;10.014;2022-10-16T08:49:30;13.90;99.90
10070;DHT22;5074;53.720;10.014;2022-10-16T08:52:00;13.90;99.90
10070;DHT22;5074;53.720;10.014;2022-10-16T08:54:28;14.00;99.90
10070;DHT22;5074;53.720;10.014;2022-10-16T08:57:07;14.00;99.90
10070;DHT22;5074;53.720;10.014;2022-10-16T08:59:37;14.10;99.90
10070;DHT22;5074;53.720;10.014;2022-10-16T09:02:12;14.20;99.90
10070;DHT22;5074;53.720;10.014;2022-10-16T09:04:54;14.20;99.90
10070;DHT22;5074;53.720;10.014;2022-10-16T09:07:32;14.20;99.90
10070;DHT22;5074;53.720;10.014;2022-10-16T09:10:10;14.20;99.90
10070;DHT22;5074;53.720;10.014;2022-10-16T09:12:51;14.20;99.90
10070;DHT22;5074;53.720;10.014;2022-10-16T09:15:24;14.30;99.90
10070;DHT22;5074;53.720;10.014;2022-10-16T09:17:59;14.40;99.90
10070;DHT22;5074;53.720;10.014;2022-10-16T09:20:35;14.40;99.90
10070;DHT22;5074;53.720;10.014;2022-10-16T09:23:13;14.50;99.90
10070;DHT22;5074;53.720;10.014;2022-10-16T09:25:44;14.60;99.90
10070;DHT22;5074;53.720;10.014;2022-10-16T09:28:15;14.60;99.90
10070;DHT22;5074;53.720;10.014;2022-10-16T09:30:45;14.70;99.90
10070;DHT22;5074;53.720;10.014;2022-10-16T09:33:17;14.80;99.90
10070;DHT22;5074;53.720;10.014;2022-10-16T09:35:48;14.80;99.90
10070;DHT22;5074;53.720;10.014;2022-10-16T09:38:23;14.80;99.90
10070;DHT22;5074;53.720;10.014;2022-10-16T09:40:53;14.90;99.90
10070;DHT22;5074;53.720;10.014;2022-10-16T09:43:30;14.90;99.90
10070;DHT22;5074;53.720;10.014;2022-10-16T09:46:03;15.00;99.90
10070;DHT22;5074;53.720;10.014;2022-10-16T09:48:34;15.00;99.90
10070;DHT22;5074;53.720;10.014;2022-10-16T09:51:05;15.00;99.90
10070;DHT22;5074;53.720;10.014;2022-10-16T09:53:45;15.10;99.90
10070;DHT22;5074;53.720;10.014;2022-10-16T09:56:20;15.10;99.90
10070;DHT22;5074;53.720;10.014;2022-10-16T09:58:50;15.20;99.90
10070;DHT22;5074;53.720;10.014;2022-10-16T10:01:19;15.30;99.90
10070;DHT22;5074;53.720;10.014;2022-10-16T10:03:48;15.30;99.90
10070;DHT22;5074;53.720;10.014;2022-10-16T10:06:21;15.40;99.90
10070;DHT22;5074;53.720;10.014;2022-10-16T10:08:54;15.40;99.90
10070;DHT22;5074;53.720;10.014;2022-10-16T10:14:27;15.50;99.90
10070;DHT22;5074;53.720;10.014;2022-10-16T10:19:50;15.60;99.90
10070;DHT22;5074;53.720;10.014;2022-10-16T10:22:28;15.70;99.90
10070;DHT22;5074;53.720;10.014;2022-10-16T10:25:00;15.70;99.90
10070;DHT22;5074;53.720;10.014;2022-10-16T10:27:43;15.70;99.90
10070;DHT22;5074;53.720;10.014;2022-10-16T10:30:20;15.80;99.90
10070;DHT22;5074;53.720;10.014;2022-10-16T10:32:56;15.80;99.90
10070;DHT22;5074;53.720;10.014;2022-10-16T10:35:41;15.90;99.90
10070;DHT22;5074;53.720;10.014;2022-10-16T10:38:18;15.90;99.90
10070;DHT22;5074;53.720;10.014;2022-10-16T10:40:58;16.00;99.90
10070;DHT22;5074;53.720;10.014;2022-10-16T10:43:43;16.10;99.90
10070;DHT22;5074;53.720;10.014;2022-10-16T10:46:28;16.10;99.90
10070;DHT22;5074;53.720;10.014;2022-10-16T10:49:10;16.10;99.90
10070;DHT22;5074;53.720;10.014;2022-10-16T10:51:49;16.00;99.90
10070;DHT22;5074;53.720;10.014;2022-10-16T10:54:26;15.90;99.90
10070;DHT22;5074;53.720;10.014;2022-10-16T10:57:02;15.90;99.90
10070;DHT22;5074;53.720;10.014;2022-10-16T10:59:37;15.90;99.90
10070;DHT22;5074;53.720;10.014;2022-10-16T11:02:25;16.00;99.90
10070;DHT22;5074;53.720;10.014;2022-10-16T11:07:52;16.10;99.90
10070;DHT22;5074;53.720;10.014;2022-10-16T11:10:25;16.10;99.90
10070;DHT22;5074;53.720;10.014;2022-10-16T11:12:58;16.10;99.90
10070;DHT22;5074;53.720;10.014;2022-10-16T11:15:39;16.20;99.90
10070;DHT22;5074;53.720;10.014;2022-10-16T11:18:12;16.20;99.90
10070;DHT22;5074;53.720;10.014;2022-10-16T11:20:47;16.40;99.90
10070;DHT22;5074;53.720;10.014;2022-10-16T11:23:21;16.50;99.90
10070;DHT22;5074;53.720;10.014;2022-10-16T11:25:54;16.60;99.90
10070;DHT22;5074;53.720;10.014;2022-10-16T11:28:26;16.70;99.90
10070;DHT22;5074;53.720;10.014;2022-10-16T11:31:02;16.70;99.90
10070;DHT22;5074;53.720;10.014;2022-10-16T11:33:37;16.80;99.90
10070;DHT22;5074;53.720;10.014;2022-10-16T11:36:11;16.90;99.90
10070;DHT22;5074;53.720;10.014;2022-10-16T11:38:44;16.90;99.90
10070;DHT22;5074;53.720;10.014;2022-10-16T11:41:19;16.90;99.90
10070;DHT22;5074;53.720;10.014;2022-10-16T11:43:55;16.90;99.90
10070;DHT22;5074;53.720;10.014;2022-10-16T11:46:33;16.90;99.90
10070;DHT22;5074;53.720;10.014;2022-10-16T11:49:26;16.80;99.90
10070;DHT22;5074;53.720;10.014;2022-10-16T11:51:59;16.60;99.90
10070;DHT22;5074;53.720;10.014;2022-10-16T11:54:35;16.60;99.90
10070;DHT22;5074;53.720;10.014;2022-10-16T11:57:09;16.60;99.90
10070;DHT22;5074;53.720;10.014;2022-10-16T11:59:44;16.70;99.90
10070;DHT22;5074;53.720;10.014;2022-10-16T12:02:26;16.70;99.90
10070;DHT22;5074;53.720;10.014;2022-10-16T12:05:17;16.80;99.90
10070;DHT22;5074;53.720;10.014;2022-10-16T12:07:55;16.90;99.90
10070;DHT22;5074;53.720;10.014;2022-10-16T12:10:31;17.00;99.90
10070;DHT22;5074;53.720;10.014;2022-10-16T12:16:23;17.10;99.90
10070;DHT22;5074;53.720;10.014;2022-10-16T12:19:02;17.20;99.90
10070;DHT22;5074;53.720;10.014;2022-10-16T12:21:38;17.30;99.90
10070;DHT22;5074;53.720;10.014;2022-10-16T12:24:06;17.50;99.90
10070;DHT22;5074;53.720;10.014;2022-10-16T12:26:49;17.60;99.90
10070;DHT22;5074;53.720;10.014;2022-10-16T12:29:22;17.70;99.90
10070;DHT22;5074;53.720;10.014;2022-10-16T12:31:58;17.70;99.90
10070;DHT22;5074;53.720;10.014;2022-10-16T12:34:28;17.70;99.90
10070;DHT22;5074;53.720;10.014;2022-10-16T12:37:07;17.70;99.90
10070;DHT22;5074;53.720;10.014;2022-10-16T12:39:38;17.70;99.90
10070;DHT22;5074;53.720;10.014;2022-10-16T12:42:19;17.60;99.90
10070;DHT22;5074;53.720;10.014;2022-10-16T12:44:50;17.70;99.90
10070;DHT22;5074;53.720;10.014;2022-10-16T12:47:21;17.60;99.90
10070;DHT22;5074;53.720;10.014;2022-10-16T12:49:51;17.70;99.90
10070;DHT22;5074;53.720;10.014;2022-10-16T12:52:25;17.60;99.90
10070;DHT22;5074;53.720;10.014;2022-10-16T12:54:56;17.60;99.90
10070;DHT22;5074;53.720;10.014;2022-10-16T12:57:30;17.50;99.90
10070;DHT22;5074;53.720;10.014;2022-10-16T13:00:10;17.40;99.90
10070;DHT22;5074;53.720;10.014;2022-10-16T13:02:56;17.30;99.90
10070;DHT22;5074;53.720;10.014;2022-10-16T13:05:46;17.20;99.90
10070;DHT22;5074;53.720;10.014;2022-10-16T13:08:29;17.30;99.90
10070;DHT22;5074;53.720;10.014;2022-10-16T13:11:10;17.50;99.90
10070;DHT22;5074;53.720;10.014;2022-10-16T13:13:51;17.50;99.90
10070;DHT22;5074;53.720;10.014;2022-10-16T13:16:34;17.60;99.90
10070;DHT22;5074;53.720;10.014;2022-10-16T13:19:18;17.60;99.90
10070;DHT22;5074;53.720;10.014;2022-10-16T13:21:54;17.80;99.90
10070;DHT22;5074;53.720;10.014;2022-10-16T13:24:36;17.80;99.90
10070;DHT22;5074;53.720;10.014;2022-10-16T13:27:16;18.10;99.90
10070;DHT22;5074;53.720;10.014;2022-10-16T13:30:00;18.30;99.90
10070;DHT22;5074;53.720;10.014;2022-10-16T13:32:35;18.40;99.90
10070;DHT22;5074;53.720;10.014;2022-10-16T13:35:15;18.40;99.90
10070;DHT22;5074;53.720;10.014;2022-10-16T13:37:46;18.30;99.90
10070;DHT22;5074;53.720;10.014;2022-10-16T13:40:18;18.30;99.90
10070;DHT22;5074;53.720;10.014;2022-10-16T13:42:48;18.20;99.90
10070;DHT22;5074;53.720;10.014;2022-10-16T13:45:17;18.00;99.90
10070;DHT22;5074;53.720;10.014;2022-10-16T13:47:46;17.80;99.90
10070;DHT22;5074;53.720;10.014;2022-10-16T13:50:17;17.70;99.90
10070;DHT22;5074;53.720;10.014;2022-10-16T13:52:46;17.70;99.90
10070;DHT22;5074;53.720;10.014;2022-10-16T13:55:14;17.60;99.90
10070;DHT22;5074;53.720;10.014;2022-10-16T13:57:44;17.50;99.90
10070;DHT22;5074;53.720;10.014;2022-10-16T14:00:19;17.50;99.90
10070;DHT22;5074;53.720;10.014;2022-10-16T14:02:51;17.40;99.90
10070;DHT22;5074;53.720;10.014;2022-10-16T14:05:24;17.30;99.90
10070;DHT22;5074;53.720;10.014;2022-10-16T14:07:52;17.20;99.90
10070;DHT22;5074;53.720;10.014;2022-10-16T14:10:23;17.20;99.90
10070;DHT22;5074;53.720;10.014;2022-10-16T14:12:55;17.20;99.90
10070;DHT22;5074;53.720;10.014;2022-10-16T14:15:25;17.20;99.90
10070;DHT22;5074;53.720;10.014;2022-10-16T14:17:53;17.20;99.90
10070;DHT22;5074;53.720;10.014;2022-10-16T14:20:23;17.10;99.90
10070;DHT22;5074;53.720;10.014;2022-10-16T14:23:01;17.00;99.90
10070;DHT22;5074;53.720;10.014;2022-10-16T14:25:31;17.00;99.90
10070;DHT22;5074;53.720;10.014;2022-10-16T14:28:00;17.00;99.90
10070;DHT22;5074;53.720;10.014;2022-10-16T14:30:32;16.90;99.90
10070;DHT22;5074;53.720;10.014;2022-10-16T14:33:02;17.00;99.90
10070;DHT22;5074;53.720;10.014;2022-10-16T14:35:33;17.00;99.90
10070;DHT22;5074;53.720;10.014;2022-10-16T14:38:04;17.00;99.90
10070;DHT22;5074;53.720;10.014;2022-10-16T14:40:35;16.90;99.90
10070;DHT22;5074;53.720;10.014;2022-10-16T14:43:04;16.90;99.90
10070;DHT22;5074;53.720;10.014;2022-10-16T14:45:33;16.80;99.90
10070;DHT22;5074;53.720;10.014;2022-10-16T14:48:03;16.70;99.90
10070;DHT22;5074;53.720;10.014;2022-10-16T14:50:35;16.70;99.90
10070;DHT22;5074;53.720;10.014;2022-10-16T14:53:07;16.70;99.90
10070;DHT22;5074;53.720;10.014;2022-10-16T14:55:38;16.70;99.90
10070;DHT22;5074;53.720;10.014;2022-10-16T14:58:08;16.60;99.90
10070;DHT22;5074;53.720;10.014;2022-10-16T15:00:41;16.60;99.90
10070;DHT22;5074;53.720;10.014;2022-10-16T15:03:09;16.60;99.90
10070;DHT22;5074;53.720;10.014;2022-10-16T15:05:39;16.50;99.90
10070;DHT22;5074;53.720;10.014;2022-10-16T15:08:07;16.50;99.90
10070;DHT22;5074;53.720;10.014;2022-10-16T15:10:36;16.50;99.90
10070;DHT22;5074;53.720;10.014;2022-10-16T15:13:09;16.60;99.90
10070;DHT22;5074;53.720;10.014;2022-10-16T15:15:41;16.60;99.90
10070;DHT22;5074;53.720;10.014;2022-10-16T15:18:11;16.60;99.90
10070;DHT22;5074;53.720;10.014;2022-10-16T15:20:42;16.50;99.90
10070;DHT22;5074;53.720;10.014;2022-10-16T15:23:12;16.50;99.90
10070;DHT22;5074;53.720;10.014;2022-10-16T15:25:43;16.40;99.90
10070;DHT22;5074;53.720;10.014;2022-10-16T15:28:13;16.30;99.90
10070;DHT22;5074;53.720;10.014;2022-10-16T15:30:41;16.20;99.90
10070;DHT22;5074;53.720;10.014;2022-10-16T15:33:12;16.20;99.90
10070;DHT22;5074;53.720;10.014;2022-10-16T15:35:44;16.10;99.90
10070;DHT22;5074;53.720;10.014;2022-10-16T15:38:14;16.00;99.90
10070;DHT22;5074;53.720;10.014;2022-10-16T15:40:42;15.90;99.90
10070;DHT22;5074;53.720;10.014;2022-10-16T15:43:10;15.90;99.90
10070;DHT22;5074;53.720;10.014;2022-10-16T15:45:38;15.80;99.90
10070;DHT22;5074;53.720;10.014;2022-10-16T15:48:08;15.80;99.90
10070;DHT22;5074;53.720;10.014;2022-10-16T15:50:38;15.70;99.90
10070;DHT22;5074;53.720;10.014;2022-10-16T15:53:08;15.60;99.90
10070;DHT22;5074;53.720;10.014;2022-10-16T15:55:36;15.50;99.90
10070;DHT22;5074;53.720;10.014;2022-10-16T15:58:05;15.50;99.90
10070;DHT22;5074;53.720;10.014;2022-10-16T16:00:32;15.40;99.90
10070;DHT22;5074;53.720;10.014;2022-10-16T16:03:01;15.30;99.90
10070;DHT22;5074;53.720;10.014;2022-10-16T16:05:29;15.30;99.90
10070;DHT22;5074;53.720;10.014;2022-10-16T16:07:56;15.20;99.90
10070;DHT22;5074;53.720;10.014;2022-10-16T16:10:26;15.10;99.90
10070;DHT22;5074;53.720;10.014;2022-10-16T16:12:54;15.00;99.90